createdAt,value
2019-02-14T00:01:09.022Z,10.63
2019-02-14T00:06:14.382Z,8.60
2019-02-14T00:11:19.640Z,13.27
2019-02-14T00:16:24.987Z,9.23
2019-02-14T00:21:30.375Z,4.33
2019-02-14T00:26:35.691Z,7.53
2019-02-14T00:31:40.970Z,8.77
2019-02-14T00:36:46.195Z,11.40
2019-02-14T00:41:51.575Z,5.67
2019-02-14T00:46:56.680Z,11.57
2019-02-14T00:52:02.032Z,10.73
2019-02-14T00:57:07.295Z,5.17
2019-02-14T01:02:12.766Z,8.03
2019-02-14T01:07:17.960Z,6.17
2019-02-14T01:12:23.238Z,4.57
2019-02-14T01:17:28.521Z,5.00
2019-02-14T01:22:34.275Z,7.77
2019-02-14T01:27:39.598Z,8.77
2019-02-14T01:32:44.920Z,9.60
2019-02-14T01:37:50.147Z,10.15
2019-02-14T01:42:55.482Z,10.83
2019-02-14T01:48:00.737Z,10.03
2019-02-14T01:53:06.138Z,6.47
2019-02-14T01:58:11.570Z,8.57
2019-02-14T02:03:16.975Z,7.87
2019-02-14T02:08:22.962Z,8.93
2019-02-14T02:13:28.364Z,7.45
2019-02-14T02:18:33.860Z,10.07
2019-02-14T02:23:39.125Z,6.80
2019-02-14T02:28:44.295Z,8.27
2019-02-14T02:33:49.620Z,8.20
2019-02-14T02:38:54.870Z,7.70
2019-02-14T02:44:00.187Z,9.20
2019-02-14T02:49:05.662Z,6.93
2019-02-14T02:54:10.865Z,8.33
2019-02-14T02:59:16.039Z,12.50
2019-02-14T03:04:21.317Z,4.93
2019-02-14T03:09:26.599Z,12.97
2019-02-14T03:14:31.904Z,9.93
2019-02-14T03:19:37.219Z,10.67
2019-02-14T03:24:42.503Z,6.17
2019-02-14T03:29:47.735Z,11.93
2019-02-14T03:34:52.882Z,9.63
2019-02-14T03:39:58.060Z,10.37
2019-02-14T03:45:03.270Z,6.80
2019-02-14T03:50:08.960Z,10.03
2019-02-14T03:55:14.098Z,7.80
2019-02-14T04:00:19.599Z,11.37
2019-02-14T04:05:24.824Z,10.17
2019-02-14T04:10:30.185Z,5.90
2019-02-14T04:15:35.442Z,8.05
2019-02-14T04:20:40.675Z,8.03
2019-02-14T04:25:45.899Z,9.60
2019-02-14T04:30:51.179Z,6.83
2019-02-14T04:35:56.417Z,8.83
2019-02-14T04:41:01.614Z,12.77
2019-02-14T04:46:06.751Z,12.37
2019-02-14T04:51:12.127Z,16.70
2019-02-14T04:56:17.340Z,9.10
2019-02-14T05:01:23.215Z,8.30
2019-02-14T05:06:28.446Z,9.98
2019-02-14T05:11:33.729Z,11.63
2019-02-14T05:16:39.078Z,14.30
2019-02-14T05:21:44.329Z,12.37
2019-02-14T05:26:49.519Z,17.03
2019-02-14T05:31:54.940Z,13.97
2019-02-14T05:37:00.125Z,10.80
2019-02-14T05:42:05.332Z,13.70
2019-02-14T05:47:10.598Z,15.57
2019-02-14T05:52:15.947Z,13.17
2019-02-14T05:57:21.257Z,12.73
2019-02-14T06:02:26.566Z,11.30
2019-02-14T06:07:31.807Z,14.10
2019-02-14T06:12:37.035Z,14.03
2019-02-14T06:17:42.219Z,13.30
2019-02-14T06:22:47.554Z,8.90
2019-02-14T06:27:52.680Z,14.18
2019-02-14T06:32:57.970Z,10.83
2019-02-14T06:38:03.156Z,9.97
2019-02-14T06:43:08.381Z,12.45
2019-02-14T06:48:13.819Z,7.50
2019-02-14T06:53:19.058Z,14.53
2019-02-14T06:58:24.336Z,14.20
2019-02-14T07:03:29.539Z,11.17
2019-02-14T07:08:34.814Z,9.90
2019-02-14T07:13:40.019Z,15.00
2019-02-14T07:18:45.195Z,13.37
2019-02-14T07:23:50.529Z,11.17
2019-02-14T07:28:55.755Z,15.43
2019-02-14T07:34:01.015Z,11.77
2019-02-14T07:39:08.254Z,13.23
2019-02-14T07:44:16.439Z,14.40
2019-02-14T07:49:21.624Z,18.13
2019-02-14T07:54:26.910Z,16.30
2019-02-14T07:59:32.199Z,17.03
2019-02-14T08:04:37.400Z,19.50
2019-02-14T08:09:42.589Z,17.07
2019-02-14T08:14:47.945Z,20.07
2019-02-14T08:19:53.330Z,18.17
2019-02-14T08:24:58.658Z,15.13
2019-02-14T08:30:04.029Z,16.67
2019-02-14T08:35:10.385Z,16.93
2019-02-14T08:40:19.476Z,18.37
2019-02-14T08:45:24.789Z,14.60
2019-02-14T08:50:30.044Z,18.10
2019-02-14T08:55:35.440Z,14.13
2019-02-14T09:00:40.689Z,14.53
2019-02-14T09:05:46.053Z,11.53
2019-02-14T09:10:51.193Z,13.30
2019-02-14T09:15:56.619Z,17.07
2019-02-14T09:21:01.960Z,13.63
2019-02-14T09:26:07.246Z,12.83
2019-02-14T09:31:12.457Z,12.80
2019-02-14T09:36:17.754Z,10.37
2019-02-14T09:41:24.574Z,10.98
2019-02-14T09:46:29.926Z,11.63
2019-02-14T09:51:35.129Z,8.47
2019-02-14T09:56:40.434Z,11.40
2019-02-14T10:01:45.568Z,11.87
2019-02-14T10:06:50.849Z,14.37
2019-02-14T10:11:56.151Z,13.47
2019-02-14T10:17:01.456Z,12.97
2019-02-14T10:22:06.870Z,11.60
2019-02-14T10:27:12.162Z,10.20
2019-02-14T10:32:17.325Z,11.07
2019-02-14T10:37:22.649Z,14.97
2019-02-14T10:42:27.879Z,11.63
2019-02-14T10:47:33.201Z,13.77
2019-02-14T10:52:38.351Z,12.77
2019-02-14T10:57:43.578Z,12.13
2019-02-14T11:02:50.001Z,11.63
2019-02-14T11:07:55.180Z,13.80
2019-02-14T11:13:00.399Z,15.50
2019-02-14T11:18:05.808Z,14.17
2019-02-14T11:23:11.164Z,16.20
2019-02-14T11:28:16.448Z,15.87
2019-02-14T11:33:21.630Z,14.07
2019-02-14T11:38:26.884Z,17.33
2019-02-14T11:43:32.526Z,20.08
2019-02-14T11:48:37.799Z,18.57
2019-02-14T11:53:43.095Z,16.77
2019-02-14T11:58:48.479Z,13.60
2019-02-14T12:03:53.751Z,11.87
2019-02-14T12:09:00.478Z,15.80
2019-02-14T12:14:06.039Z,20.47
2019-02-14T12:19:11.343Z,15.23
2019-02-14T12:24:16.604Z,15.00
2019-02-14T12:29:21.794Z,15.20
2019-02-14T12:34:27.214Z,14.27
2019-02-14T12:39:32.391Z,15.27
2019-02-14T12:44:37.886Z,17.00
2019-02-14T12:49:43.082Z,17.60
2019-02-14T12:54:48.317Z,17.17
2019-02-14T12:59:54.936Z,18.60
2019-02-14T13:05:00.216Z,18.93
2019-02-14T13:10:05.889Z,18.43
2019-02-14T13:15:14.077Z,16.77
2019-02-14T13:20:19.280Z,20.27
2019-02-14T13:25:24.486Z,21.25
2019-02-14T13:30:29.632Z,22.93
2019-02-14T13:35:34.854Z,18.77
2019-02-14T13:40:40.066Z,17.93
2019-02-14T13:45:45.279Z,16.27
2019-02-14T13:50:50.494Z,19.30
2019-02-14T13:55:55.760Z,15.37
2019-02-14T14:01:00.971Z,17.60
2019-02-14T14:06:10.802Z,24.50
2019-02-14T14:11:15.951Z,18.57
2019-02-14T14:16:21.270Z,14.97
2019-02-14T14:21:26.741Z,17.00
2019-02-14T14:26:32.012Z,17.17
2019-02-14T14:31:37.199Z,14.17
2019-02-14T14:36:42.580Z,17.35
2019-02-14T14:41:47.832Z,15.80
2019-02-14T14:46:57.551Z,14.93
2019-02-14T14:52:02.874Z,20.47
2019-02-14T14:57:08.315Z,15.77
2019-02-14T15:02:13.506Z,16.70
2019-02-14T15:07:18.889Z,17.63
2019-02-14T15:12:25.794Z,13.70
2019-02-14T15:17:33.437Z,18.92
2019-02-14T15:22:38.636Z,18.33
2019-02-14T15:27:43.905Z,16.73
2019-02-14T15:32:49.345Z,12.53
2019-02-14T15:37:54.700Z,21.20
2019-02-14T15:42:59.939Z,14.47
2019-02-14T15:48:05.364Z,15.60
2019-02-14T15:53:10.648Z,15.00
2019-02-14T15:58:16.200Z,18.57
2019-02-14T16:03:21.442Z,18.87
2019-02-14T16:08:26.646Z,21.13
2019-02-14T16:13:33.683Z,21.57
2019-02-14T16:18:39.066Z,21.10
2019-02-14T16:23:44.670Z,18.33
2019-02-14T16:28:49.864Z,20.17
2019-02-14T16:33:55.060Z,20.63
2019-02-14T16:39:01.425Z,17.73
2019-02-14T16:44:06.834Z,23.43
2019-02-14T16:49:12.185Z,17.43
2019-02-14T16:54:17.491Z,21.67
2019-02-14T16:59:22.754Z,17.27
2019-02-14T17:04:30.495Z,17.90
2019-02-14T17:09:35.735Z,16.37
2019-02-14T17:14:41.010Z,15.37
2019-02-14T17:19:46.385Z,16.63
2019-02-14T17:24:53.026Z,15.97
2019-02-14T17:29:58.201Z,15.67
2019-02-14T17:35:03.579Z,13.27
2019-02-14T17:40:09.541Z,15.20
2019-02-14T17:45:15.579Z,14.87
2019-02-14T17:50:20.797Z,14.60
2019-02-14T17:55:28.308Z,18.80
2019-02-14T18:00:33.495Z,16.00
2019-02-14T18:05:38.911Z,15.55
2019-02-14T18:10:44.301Z,14.38
2019-02-14T18:15:49.554Z,14.73
2019-02-14T18:20:54.832Z,16.40
2019-02-14T18:26:00.105Z,15.27
2019-02-14T18:31:05.494Z,19.20
2019-02-14T18:36:13.906Z,16.33
2019-02-14T18:41:22.147Z,14.03
2019-02-14T18:46:27.310Z,18.67
2019-02-14T18:51:32.715Z,14.80
2019-02-14T18:56:37.906Z,16.48
2019-02-14T19:01:43.129Z,15.77
2019-02-14T19:06:48.315Z,16.70
2019-02-14T19:11:53.535Z,16.97
2019-02-14T19:16:58.954Z,14.37
2019-02-14T19:22:04.192Z,13.60
2019-02-14T19:27:09.414Z,14.57
2019-02-14T19:32:14.828Z,14.60
2019-02-14T19:37:20.129Z,15.67
2019-02-14T19:42:25.364Z,19.53
2019-02-14T19:47:30.631Z,16.53
2019-02-14T19:52:36.077Z,18.57
2019-02-14T19:57:42.552Z,20.23
2019-02-14T20:02:47.834Z,24.53
2019-02-14T20:07:53.038Z,26.87
2019-02-14T20:12:58.360Z,22.80
2019-02-14T20:18:03.741Z,26.17
2019-02-14T20:23:09.099Z,28.87
2019-02-14T20:28:14.594Z,32.77
2019-02-14T20:33:19.995Z,32.17
2019-02-14T20:38:26.214Z,25.47
2019-02-14T20:43:31.545Z,28.62
2019-02-14T20:48:36.695Z,26.82
2019-02-14T20:53:42.254Z,25.70
2019-02-14T20:58:47.574Z,28.70
2019-02-14T21:03:52.989Z,28.87
2019-02-14T21:08:59.204Z,21.03
2019-02-14T21:14:04.467Z,30.87
2019-02-14T21:19:09.669Z,31.83
2019-02-14T21:24:15.276Z,31.63
2019-02-14T21:29:20.501Z,25.90
2019-02-14T21:34:25.879Z,26.10
2019-02-14T21:39:31.175Z,24.33
2019-02-14T21:44:36.587Z,27.23
2019-02-14T21:49:41.822Z,24.63
2019-02-14T21:54:47.275Z,24.87
2019-02-14T21:59:52.380Z,26.23
2019-02-14T22:04:57.527Z,24.67
2019-02-14T22:10:02.681Z,28.47
2019-02-14T22:15:10.245Z,30.73
2019-02-14T22:20:15.483Z,30.97
2019-02-14T22:25:20.721Z,27.87
2019-02-14T22:30:26.129Z,35.20
2019-02-14T22:35:31.410Z,35.43
2019-02-14T22:40:36.683Z,41.35
2019-02-14T22:45:42.040Z,36.63
2019-02-14T22:50:47.315Z,35.60
2019-02-14T22:55:53.144Z,39.10
2019-02-14T23:01:00.771Z,34.83
2019-02-14T23:06:06.035Z,39.20
2019-02-14T23:11:11.230Z,40.10
2019-02-14T23:16:16.610Z,39.83
2019-02-14T23:21:21.775Z,36.43
2019-02-14T23:26:27.075Z,37.37
2019-02-14T23:31:32.341Z,38.70
2019-02-14T23:36:37.531Z,37.85
2019-02-14T23:41:42.683Z,38.17
2019-02-14T23:46:47.894Z,35.77
2019-02-14T23:51:53.348Z,33.73
2019-02-14T23:56:59.803Z,38.10
